Time;durP1;ratioP1;P1;durP2;ratioP2;P2;SDS_P1;SDS_P2;PMS_P1;PMS_P2;Temp;Humidity;BMP_temperature;BMP_pressure;BME280_temperature;BME280_humidity;BME280_pressure;Samples;Min_cycle;Max_cycle;Signal;HPM_P1;HPM_P2
2022/08/19 00:01:24;;;;;;;6.55;4.82;;;17.90;96.60;;;;;;4933247;29;20031;-62
2022/08/19 00:03:50;;;;;;;6.63;4.65;;;17.90;96.70;;;;;;4933387;29;20067;-63
2022/08/19 00:06:16;;;;;;;8.57;5.78;;;17.90;96.70;;;;;;4932599;29;20060;-62
2022/08/19 00:08:42;;;;;;;9.10;5.15;;;17.90;96.70;;;;;;4931808;29;20038;-59
2022/08/19 00:11:09;;;;;;;8.25;6.10;;;18.00;96.70;;;;;;4933380;29;20468;-62
2022/08/19 00:13:35;;;;;;;11.40;6.85;;;17.90;96.90;;;;;;4932875;29;20506;-61
2022/08/19 00:16:01;;;;;;;10.63;6.25;;;17.80;97.10;;;;;;4931578;29;20027;-61
2022/08/19 00:18:27;;;;;;;9.40;6.07;;;17.80;97.30;;;;;;4932962;29;20038;-60
2022/08/19 00:20:52;;;;;;;7.90;5.68;;;17.80;97.30;;;;;;4932496;29;20102;-63
2022/08/19 00:23:18;;;;;;;9.13;5.82;;;17.70;97.50;;;;;;4933611;29;20118;-59
2022/08/19 00:25:44;;;;;;;9.40;6.28;;;17.70;97.60;;;;;;4936931;29;20042;-60
2022/08/19 00:28:10;;;;;;;8.77;6.25;;;17.60;97.70;;;;;;4936158;29;20605;-61
2022/08/19 00:30:36;;;;;;;7.88;5.10;;;17.60;97.70;;;;;;4936508;29;20123;-64
2022/08/19 00:33:02;;;;;;;6.68;4.97;;;17.60;97.80;;;;;;4936566;29;20044;-62
2022/08/19 00:35:28;;;;;;;6.00;4.30;;;17.50;97.70;;;;;;4935934;29;20477;-60
2022/08/19 00:37:54;;;;;;;7.10;4.88;;;17.40;97.60;;;;;;4936404;29;20412;-60
2022/08/19 00:40:19;;;;;;;8.48;4.70;;;17.40;97.70;;;;;;4936551;29;20023;-60
2022/08/19 00:42:45;;;;;;;8.60;5.45;;;17.30;97.70;;;;;;4934104;29;20646;-60
2022/08/19 00:45:17;;;;;;;6.60;4.50;;;17.30;97.80;;;;;;4935107;29;20051;-60
2022/08/19 00:47:44;;;;;;;7.05;4.85;;;17.20;98.00;;;;;;4935396;29;20487;-60
2022/08/19 00:50:13;;;;;;;6.70;4.07;;;17.20;97.90;;;;;;4935016;29;20047;-60
2022/08/19 00:52:44;;;;;;;5.53;4.15;;;17.20;97.80;;;;;;4936104;29;20429;-60
2022/08/19 00:55:18;;;;;;;6.78;4.40;;;17.20;98.00;;;;;;4935831;29;20103;-60
2022/08/19 00:57:51;;;;;;;6.53;4.03;;;17.20;97.80;;;;;;4935661;29;20396;-60
2022/08/19 01:00:19;;;;;;;6.70;4.75;;;17.10;97.90;;;;;;4936208;29;20024;-59
2022/08/19 01:02:44;;;;;;;7.32;4.68;;;17.10;97.60;;;;;;4934942;29;20094;-59
2022/08/19 01:05:22;;;;;;;7.30;4.82;;;17.10;97.70;;;;;;4935986;29;20031;-60
2022/08/19 01:07:50;;;;;;;7.78;5.30;;;17.10;97.80;;;;;;4935417;29;20115;-61
2022/08/19 01:10:19;;;;;;;8.63;5.18;;;17.10;97.90;;;;;;4934971;29;20035;-60
2022/08/19 01:12:49;;;;;;;6.97;4.90;;;17.00;98.00;;;;;;4935310;29;20020;-62
2022/08/19 01:15:19;;;;;;;7.20;5.13;;;17.00;98.10;;;;;;4935741;29;20024;-61
2022/08/19 01:17:45;;;;;;;8.18;5.22;;;17.00;98.10;;;;;;4934981;29;20031;-61
2022/08/19 01:20:16;;;;;;;7.93;5.30;;;17.00;98.10;;;;;;4935149;29;20028;-60
2022/08/19 01:22:46;;;;;;;9.73;5.53;;;17.00;98.30;;;;;;4933107;29;20851;-60
2022/08/19 01:25:15;;;;;;;7.65;4.68;;;17.00;98.20;;;;;;4934935;29;20043;-61
2022/08/19 01:27:47;;;;;;;8.57;6.03;;;17.00;98.20;;;;;;4934691;29;20469;-60
2022/08/19 01:30:16;;;;;;;10.02;5.63;;;16.90;98.30;;;;;;4933745;29;20086;-62
2022/08/19 01:32:43;;;;;;;9.10;5.43;;;16.80;98.40;;;;;;4935014;29;20505;-60
2022/08/19 01:35:10;;;;;;;8.90;4.97;;;16.80;98.60;;;;;;4934954;29;20154;-61
2022/08/19 01:37:51;;;;;;;7.97;5.13;;;16.80;98.70;;;;;;4934812;29;20032;-60
2022/08/19 01:40:20;;;;;;;8.68;5.35;;;16.80;98.70;;;;;;4935446;29;20442;-59
2022/08/19 01:42:47;;;;;;;6.80;4.60;;;16.70;98.70;;;;;;4935002;29;20055;-60
2022/08/19 01:45:13;;;;;;;8.98;4.43;;;16.70;98.70;;;;;;4934489;29;20035;-60
2022/08/19 01:47:39;;;;;;;5.20;3.22;;;16.70;98.70;;;;;;4935108;29;20031;-60
2022/08/19 01:50:07;;;;;;;4.47;3.13;;;16.70;98.70;;;;;;4934840;29;20087;-60
2022/08/19 01:52:36;;;;;;;3.70;2.72;;;16.70;98.50;;;;;;4934376;29;20020;-60
2022/08/19 01:55:03;;;;;;;3.15;2.30;;;16.70;98.30;;;;;;4934799;29;20046;-62
2022/08/19 01:57:29;;;;;;;4.18;2.85;;;16.70;98.10;;;;;;4934775;29;20028;-61
2022/08/19 01:59:55;;;;;;;4.07;3.03;;;16.60;97.90;;;;;;4933935;29;20030;-61
2022/08/19 02:02:20;;;;;;;5.32;3.40;;;16.60;97.90;;;;;;4934923;29;20115;-60
2022/08/19 02:04:46;;;;;;;6.22;3.22;;;16.60;98.00;;;;;;4934794;29;20472;-62
2022/08/19 02:07:11;;;;;;;5.50;3.60;;;16.50;98.00;;;;;;4932954;29;20094;-60
2022/08/19 02:09:37;;;;;;;5.15;3.70;;;16.40;98.10;;;;;;4934443;29;20111;-60
2022/08/19 02:12:04;;;;;;;7.20;5.03;;;16.40;98.20;;;;;;4933505;29;20075;-60
2022/08/19 02:14:30;;;;;;;7.20;4.80;;;16.30;98.30;;;;;;4934136;29;20043;-61
2022/08/19 02:16:56;;;;;;;6.68;4.57;;;16.40;98.40;;;;;;4934392;29;20102;-64
2022/08/19 02:19:22;;;;;;;7.25;4.95;;;16.40;98.50;;;;;;4934050;29;20028;-61
2022/08/19 02:21:47;;;;;;;6.85;4.65;;;16.40;98.50;;;;;;4934114;29;20024;-60
2022/08/19 02:24:13;;;;;;;7.00;4.82;;;16.40;98.50;;;;;;4934341;29;20082;-61
2022/08/19 02:26:39;;;;;;;7.32;5.05;;;16.40;98.50;;;;;;4933889;29;20016;-61
2022/08/19 02:29:05;;;;;;;8.23;4.78;;;16.40;98.50;;;;;;4933744;29;20424;-60
2022/08/19 02:31:33;;;;;;;6.00;4.03;;;16.40;98.50;;;;;;4933949;29;20051;-61
2022/08/19 02:33:58;;;;;;;6.47;4.35;;;16.40;98.50;;;;;;4933832;29;20100;-59
2022/08/19 02:36:25;;;;;;;8.40;5.00;;;16.30;98.50;;;;;;4933731;29;20036;-60
2022/08/19 02:38:51;;;;;;;7.85;4.80;;;16.30;98.60;;;;;;4933997;29;20028;-59
2022/08/19 02:41:21;;;;;;;8.38;5.28;;;16.30;98.70;;;;;;4933178;29;20540;-59
2022/08/19 02:43:47;;;;;;;6.82;4.40;;;16.20;98.80;;;;;;4933870;29;20020;-59
2022/08/19 02:46:20;;;;;;;7.25;4.45;;;16.10;98.70;;;;;;4933356;29;20086;-60
2022/08/19 02:48:50;;;;;;;6.15;3.95;;;16.10;98.70;;;;;;4932961;29;20024;-60
2022/08/19 02:51:22;;;;;;;6.70;3.60;;;16.10;98.70;;;;;;4934012;29;20023;-60
2022/08/19 02:53:48;;;;;;;5.80;3.58;;;16.10;98.70;;;;;;4933520;29;20075;-59
2022/08/19 02:56:13;;;;;;;7.07;3.83;;;16.20;98.60;;;;;;4933374;29;20489;-59
2022/08/19 02:58:40;;;;;;;6.80;4.63;;;16.10;98.60;;;;;;4933805;29;20070;-59
2022/08/19 03:01:07;;;;;;;5.88;3.63;;;16.10;98.60;;;;;;4934072;29;20023;-59
2022/08/19 03:03:33;;;;;;;7.13;4.35;;;16.10;98.50;;;;;;4933355;29;20035;-59
2022/08/19 03:06:12;;;;;;;5.53;3.88;;;16.10;98.50;;;;;;4932276;29;20034;-59
2022/08/19 03:08:41;;;;;;;8.05;4.28;;;16.10;98.50;;;;;;4932937;29;20029;-59
2022/08/19 03:11:16;;;;;;;6.43;3.70;;;16.10;98.50;;;;;;4933576;29;20473;-59
2022/08/19 03:13:43;;;;;;;6.53;4.15;;;16.10;98.50;;;;;;4933429;29;20034;-59
2022/08/19 03:16:09;;;;;;;4.85;3.63;;;16.00;98.50;;;;;;4932985;29;20421;-60
2022/08/19 03:18:35;;;;;;;7.90;3.72;;;16.00;98.90;;;;;;4933807;29;20055;-60
2022/08/19 03:21:00;;;;;;;4.82;3.30;;;16.00;98.60;;;;;;4933075;29;20065;-59
2022/08/19 03:23:26;;;;;;;4.57;3.30;;;16.00;98.70;;;;;;4931928;29;20477;-60
2022/08/19 03:25:53;;;;;;;5.53;3.78;;;15.90;98.80;;;;;;4933042;29;20032;-60
2022/08/19 03:28:20;;;;;;;5.20;3.65;;;15.90;98.80;;;;;;4933631;29;20020;-59
2022/08/19 03:31:06;;;;;;;5.82;4.03;;;15.80;98.80;;;;;;4931277;29;20027;-60
2022/08/19 03:33:33;;;;;;;6.65;4.25;;;15.80;98.70;;;;;;4933555;29;20032;-59
2022/08/19 03:36:16;;;;;;;6.53;4.45;;;15.80;98.70;;;;;;4933231;29;20039;-62
2022/08/19 03:38:48;;;;;;;6.80;4.20;;;15.80;98.80;;;;;;4932539;29;20628;-59
2022/08/19 03:41:17;;;;;;;6.88;4.70;;;15.80;98.90;;;;;;4933417;29;20020;-60
2022/08/19 03:43:46;;;;;;;5.53;4.20;;;15.80;98.90;;;;;;4932488;29;20573;-59
2022/08/19 03:46:15;;;;;;;6.45;4.07;;;15.80;98.90;;;;;;4933412;29;20366;-59
2022/08/19 03:48:42;;;;;;;6.70;4.10;;;15.80;99.00;;;;;;4932903;29;20031;-59
2022/08/19 03:51:20;;;;;;;6.60;3.75;;;15.80;99.00;;;;;;4932647;29;20027;-59
2022/08/19 03:53:46;;;;;;;5.55;3.70;;;15.70;99.00;;;;;;4931921;29;20031;-59
2022/08/19 03:56:13;;;;;;;5.60;3.25;;;15.70;98.90;;;;;;4933142;29;20047;-59
2022/08/19 03:58:39;;;;;;;3.85;2.92;;;15.60;99.00;;;;;;4934284;29;20110;-60
2022/08/19 04:01:10;;;;;;;3.72;2.88;;;15.60;99.20;;;;;;4936589;29;20087;-62
2022/08/19 04:03:36;;;;;;;4.57;3.45;;;15.60;99.00;;;;;;4937227;29;20099;-66
2022/08/19 04:06:12;;;;;;;3.83;2.95;;;15.50;98.90;;;;;;4935974;29;20106;-63
2022/08/19 04:08:40;;;;;;;3.72;2.90;;;15.50;98.90;;;;;;4937295;29;20035;-71
2022/08/19 04:11:12;;;;;;;4.18;2.33;;;15.50;98.90;;;;;;4936640;29;20372;-60
2022/08/19 04:13:38;;;;;;;4.22;2.95;;;15.40;98.80;;;;;;4936466;29;20032;-63
2022/08/19 04:16:05;;;;;;;4.88;2.70;;;15.40;98.90;;;;;;4936401;29;20374;-64
2022/08/19 04:18:32;;;;;;;4.25;2.90;;;15.30;98.90;;;;;;4936616;29;20184;-61
2022/08/19 04:20:58;;;;;;;5.90;3.20;;;15.30;98.90;;;;;;4936312;29;20071;-60
2022/08/19 04:23:24;;;;;;;4.63;3.35;;;15.30;98.90;;;;;;4936710;29;20020;-59
2022/08/19 04:25:49;;;;;;;5.90;3.92;;;15.30;99.00;;;;;;4935845;29;20377;-59
2022/08/19 04:28:15;;;;;;;6.32;3.58;;;15.30;99.00;;;;;;4936553;29;20103;-59
2022/08/19 04:30:44;;;;;;;5.47;4.05;;;15.30;99.00;;;;;;4936573;29;20032;-60
2022/08/19 04:33:11;;;;;;;5.20;3.60;;;15.20;99.00;;;;;;4935618;29;20544;-60
2022/08/19 04:35:42;;;;;;;5.55;3.72;;;15.30;99.00;;;;;;4936512;29;20186;-60
2022/08/19 04:38:09;;;;;;;4.25;2.90;;;15.20;99.10;;;;;;4936206;29;20020;-59
2022/08/19 04:43:28;;;;;;;5.03;3.10;;;15.20;99.00;;;;;;4936510;29;20062;-59
2022/08/19 04:45:54;;;;;;;3.60;2.60;;;15.20;99.10;;;;;;4935698;29;20039;-60
2022/08/19 04:48:25;;;;;;;3.88;2.97;;;15.20;99.00;;;;;;4935840;29;20028;-59
2022/08/19 04:50:57;;;;;;;3.72;2.35;;;15.20;99.10;;;;;;4934908;29;20082;-60
2022/08/19 04:53:24;;;;;;;3.90;2.72;;;15.20;99.10;;;;;;4916974;29;20028;-66
2022/08/19 04:55:50;;;;;;;4.13;2.78;;;15.20;99.10;;;;;;4915221;29;20039;-65
2022/08/19 04:58:17;;;;;;;4.50;2.92;;;15.10;99.10;;;;;;4947219;29;20024;-60
2022/08/19 05:00:43;;;;;;;4.57;3.10;;;15.10;99.10;;;;;;4916309;29;20027;-59
2022/08/19 05:03:09;;;;;;;5.22;3.17;;;15.10;99.10;;;;;;4947613;28;20057;-60
2022/08/19 05:05:39;;;;;;;4.03;2.70;;;15.10;99.10;;;;;;4935543;29;20039;-60
2022/08/19 05:08:05;;;;;;;4.22;2.72;;;15.10;99.10;;;;;;4934704;29;20019;-60
2022/08/19 05:10:30;;;;;;;5.28;3.50;;;15.10;99.10;;;;;;4949712;28;20095;-59
2022/08/19 05:12:57;;;;;;;5.35;3.72;;;15.10;99.10;;;;;;4935410;29;20039;-59
2022/08/19 05:15:22;;;;;;;6.80;3.40;;;15.10;99.10;;;;;;4934811;29;20407;-59
2022/08/19 05:23:16;;;;;;;6.68;4.10;;;15.30;99.00;;;;;;4932832;29;20084;-59
2022/08/19 05:25:42;;;;;;;8.80;4.57;;;15.30;98.90;;;;;;4934985;29;20500;-60
2022/08/19 05:28:08;;;;;;;7.45;4.18;;;15.40;98.90;;;;;;4935247;29;20038;-59
2022/08/19 05:30:33;;;;;;;6.22;3.90;;;15.40;98.90;;;;;;4933840;29;20031;-59
2022/08/19 05:32:59;;;;;;;7.45;4.72;;;15.50;98.90;;;;;;4934480;29;20131;-60
2022/08/19 05:35:25;;;;;;;7.55;4.57;;;15.50;98.80;;;;;;4935329;29;20036;-60
2022/08/19 05:37:53;;;;;;;8.07;5.05;;;15.60;98.80;;;;;;4934470;29;20031;-59
2022/08/19 05:40:19;;;;;;;9.00;5.38;;;15.70;98.80;;;;;;4935158;29;20032;-60
2022/08/19 05:42:45;;;;;;;9.02;5.93;;;15.70;98.70;;;;;;4935009;29;20038;-60
2022/08/19 05:45:11;;;;;;;8.98;5.38;;;15.80;98.70;;;;;;4934626;29;20425;-60
2022/08/19 05:47:37;;;;;;;10.00;6.03;;;15.80;98.70;;;;;;4935216;29;20495;-59
2022/08/19 05:50:03;;;;;;;8.80;5.60;;;15.90;98.70;;;;;;4934170;29;20397;-59
2022/08/19 05:52:29;;;;;;;9.32;5.82;;;16.00;98.60;;;;;;4949981;28;20028;-59
2022/08/19 05:54:55;;;;;;;9.82;6.00;;;16.10;98.60;;;;;;4934588;29;20039;-60
2022/08/19 05:57:21;;;;;;;11.63;6.38;;;16.20;98.50;;;;;;4934161;29;20035;-59
2022/08/19 05:59:48;;;;;;;11.07;6.43;;;16.20;98.40;;;;;;4934735;29;20107;-60
2022/08/19 06:02:13;;;;;;;9.77;6.47;;;16.30;98.40;;;;;;4933459;29;20137;-60
2022/08/19 06:04:42;;;;;;;11.63;6.85;;;16.40;98.40;;;;;;4934545;29;20062;-59
2022/08/19 06:07:08;;;;;;;12.00;6.72;;;16.50;98.40;;;;;;4934701;29;20444;-59
2022/08/19 06:09:35;;;;;;;17.60;9.48;;;16.60;98.40;;;;;;4935534;29;20516;-59
2022/08/19 06:12:02;;;;;;;17.35;10.07;;;16.60;98.40;;;;;;4933785;29;20038;-59
2022/08/19 06:14:31;;;;;;;17.98;10.48;;;16.80;98.50;;;;;;4949334;29;20441;-59
2022/08/19 06:16:57;;;;;;;20.75;11.60;;;16.90;98.50;;;;;;4934547;29;20063;-59
2022/08/19 06:19:26;;;;;;;21.23;11.75;;;17.10;98.30;;;;;;4933832;29;20350;-59
2022/08/19 06:21:53;;;;;;;20.30;12.02;;;17.20;98.30;;;;;;4933313;29;20019;-59
2022/08/19 06:24:25;;;;;;;20.65;11.52;;;17.30;98.10;;;;;;4934546;29;20048;-59
2022/08/19 06:26:54;;;;;;;21.67;11.68;;;17.50;98.10;;;;;;4948189;29;20035;-59
2022/08/19 06:29:23;;;;;;;18.75;10.68;;;17.60;98.00;;;;;;4934490;29;20027;-60
2022/08/19 06:31:51;;;;;;;22.77;12.85;;;17.70;97.90;;;;;;4946071;29;20044;-60
2022/08/19 06:34:18;;;;;;;20.67;11.85;;;17.80;98.00;;;;;;4934415;29;20034;-60
2022/08/19 06:36:47;;;;;;;23.25;13.63;;;17.90;97.90;;;;;;4933997;29;20040;-59
2022/08/19 06:39:17;;;;;;;25.23;14.57;;;18.00;97.90;;;;;;4933592;29;20043;-60
2022/08/19 06:41:47;;;;;;;25.08;14.65;;;18.20;97.90;;;;;;4933754;29;20488;-60
2022/08/19 06:44:14;;;;;;;23.63;13.43;;;18.30;97.80;;;;;;4934432;29;20066;-59
2022/08/19 06:46:41;;;;;;;26.27;16.33;;;18.40;97.90;;;;;;4933543;29;20279;-59
2022/08/19 06:49:13;;;;;;;22.80;14.30;;;18.50;97.80;;;;;;4933792;29;20019;-59
2022/08/19 06:51:40;;;;;;;36.97;20.27;;;18.60;97.90;;;;;;4933289;29;20493;-60
2022/08/19 06:54:06;;;;;;;35.03;19.63;;;18.80;99.20;;;;;;4934158;29;20092;-59
2022/08/19 06:56:34;;;;;;;36.45;20.13;;;18.90;99.10;;;;;;4933629;29;20038;-59
2022/08/19 06:59:03;;;;;;;35.80;19.85;;;19.00;98.90;;;;;;4932734;29;20028;-60
2022/08/19 07:01:29;;;;;;;33.58;19.27;;;19.20;98.80;;;;;;4933654;29;20035;-60
2022/08/19 07:03:56;;;;;;;32.20;18.98;;;19.30;98.60;;;;;;4933495;29;20389;-59
2022/08/19 07:06:21;;;;;;;34.00;17.58;;;19.40;98.60;;;;;;4933015;29;20019;-60
2022/08/19 07:08:48;;;;;;;32.28;18.15;;;19.50;98.40;;;;;;4933291;29;20032;-60
2022/08/19 07:11:17;;;;;;;34.58;18.50;;;19.50;98.20;;;;;;4933343;29;20035;-59
2022/08/19 07:13:43;;;;;;;33.03;18.42;;;19.60;98.10;;;;;;4932935;29;20047;-60
2022/08/19 07:16:15;;;;;;;32.13;18.02;;;19.70;98.00;;;;;;4933577;29;20035;-59
2022/08/19 07:18:42;;;;;;;32.65;19.60;;;19.70;97.90;;;;;;4933044;29;20054;-59
2022/08/19 07:21:14;;;;;;;35.03;20.08;;;19.80;97.70;;;;;;4947361;29;20047;-60
2022/08/19 07:23:40;;;;;;;36.80;19.75;;;19.90;97.60;;;;;;4933481;29;20114;-60
2022/08/19 07:26:08;;;;;;;30.40;17.45;;;19.90;97.50;;;;;;4933390;29;20020;-59
2022/08/19 07:28:34;;;;;;;39.13;19.42;;;20.00;97.40;;;;;;4932859;29;20454;-60
2022/08/19 07:31:01;;;;;;;31.08;17.23;;;20.10;97.30;;;;;;4932790;29;20043;-60
2022/08/19 07:33:29;;;;;;;33.08;18.45;;;20.10;97.10;;;;;;4932846;29;20043;-59
2022/08/19 07:35:55;;;;;;;33.60;17.58;;;20.20;97.00;;;;;;4933035;29;20043;-60
2022/08/19 07:38:21;;;;;;;32.53;18.60;;;20.30;96.80;;;;;;4933691;29;20365;-60
2022/08/19 07:40:46;;;;;;;32.67;19.00;;;20.40;96.70;;;;;;4932416;29;20104;-60
2022/08/19 07:43:12;;;;;;;29.95;17.00;;;20.50;96.40;;;;;;4932038;29;20662;-60
2022/08/19 07:45:37;;;;;;;29.35;17.15;;;20.60;96.20;;;;;;4933260;29;20032;-59
2022/08/19 07:48:03;;;;;;;32.05;17.88;;;20.70;95.80;;;;;;4932220;29;20480;-60
2022/08/19 07:50:29;;;;;;;32.38;16.92;;;20.80;95.60;;;;;;4933257;29;20036;-59
2022/08/19 07:52:55;;;;;;;29.05;18.33;;;20.80;95.60;;;;;;4932757;29;20373;-59
2022/08/19 07:55:26;;;;;;;32.95;17.77;;;20.90;95.50;;;;;;4932617;29;20066;-60
2022/08/19 07:57:53;;;;;;;24.55;15.00;;;20.90;95.30;;;;;;4932952;29;20446;-60
2022/08/19 08:00:18;;;;;;;25.25;14.45;;;21.00;95.30;;;;;;4933089;29;20031;-60
2022/08/19 08:02:44;;;;;;;23.25;13.32;;;21.10;95.20;;;;;;4932449;29;20401;-60
2022/08/19 08:10:59;;;;;;;24.80;14.15;;;21.40;94.40;;;;;;4891978;29;20040;-60
2022/08/19 08:13:26;;;;;;;28.67;16.25;;;21.50;94.30;;;;;;4892713;29;20036;-60
2022/08/19 08:15:52;;;;;;;27.35;14.98;;;21.60;93.60;;;;;;4910687;29;20098;-60
2022/08/19 08:18:18;;;;;;;23.35;14.93;;;21.80;93.40;;;;;;4932838;29;20448;-60
2022/08/19 08:20:44;;;;;;;28.95;18.17;;;21.80;92.90;;;;;;4931842;29;20056;-59
2022/08/19 08:23:25;;;;;;;28.52;17.58;;;21.90;92.70;;;;;;4932139;29;20054;-61
2022/08/19 08:25:55;;;;;;;;;;;21.90;92.70;;;;;;4933011;29;20087;-60
2022/08/19 08:28:21;;;;;;;28.33;16.33;;;21.90;92.20;;;;;;4933282;29;19921;-60
2022/08/19 08:30:48;;;;;;;37.40;18.00;;;21.90;92.00;;;;;;4931952;29;20473;-60
2022/08/19 08:33:18;;;;;;;35.65;19.63;;;21.90;91.60;;;;;;4932685;29;20479;-60
2022/08/19 08:35:45;;;;;;;44.47;21.55;;;21.90;91.70;;;;;;4932529;29;20067;-60
2022/08/19 08:38:11;;;;;;;38.83;21.33;;;22.00;91.90;;;;;;4932163;29;20015;-60
2022/08/19 08:40:58;;;;;;;37.95;21.55;;;22.00;91.90;;;;;;4933005;29;20032;-60
2022/08/19 08:43:32;;;;;;;42.55;20.50;;;22.20;91.90;;;;;;4932820;29;20023;-60
2022/08/19 08:46:05;;;;;;;39.10;20.00;;;22.20;91.40;;;;;;4935029;29;20042;-60
2022/08/19 08:48:40;;;;;;;43.10;21.38;;;22.20;91.10;;;;;;4936429;29;20028;-60
2022/08/19 08:51:12;;;;;;;39.90;20.77;;;22.30;91.00;;;;;;4935373;29;20028;-60
2022/08/19 08:53:40;;;;;;;35.65;19.52;;;22.40;90.80;;;;;;4950531;29;20023;-59
2022/08/19 08:56:12;;;;;;;40.60;21.88;;;22.40;90.70;;;;;;4936087;29;20063;-60
2022/08/19 08:59:03;;;;;;;37.00;20.10;;;22.50;90.40;;;;;;4935259;29;20024;-60
2022/08/19 09:01:29;;;;;;;48.15;25.52;;;22.60;90.20;;;;;;4936104;29;20019;-61
2022/08/19 09:03:55;;;;;;;40.33;20.35;;;22.60;90.40;;;;;;4935438;29;20476;-60
2022/08/19 09:06:28;;;;;;;41.10;21.88;;;22.70;90.20;;;;;;4935420;29;20069;-60
2022/08/19 09:09:13;;;;;;;33.25;17.80;;;22.70;88.10;;;;;;4935641;29;20019;-60
2022/08/19 09:12:00;;;;;;;33.22;18.33;;;22.70;85.10;;;;;;4935917;29;20027;-60
2022/08/19 09:14:45;;;;;;;33.70;18.38;;;22.70;85.40;;;;;;4935341;29;20027;-60
2022/08/19 09:17:12;;;;;;;32.83;18.92;;;22.70;84.00;;;;;;4935573;29;20156;-60
2022/08/19 09:19:52;;;;;;;34.08;20.38;;;22.70;84.40;;;;;;4935053;29;20035;-59
2022/08/19 09:22:20;;;;;;;39.57;22.00;;;22.80;85.40;;;;;;4935748;29;20056;-60
2022/08/19 09:24:46;;;;;;;32.47;19.17;;;22.80;85.30;;;;;;4935328;29;20028;-60
2022/08/19 09:27:11;;;;;;;34.17;20.98;;;22.80;85.00;;;;;;4934686;29;20020;-60
2022/08/19 09:29:37;;;;;;;31.52;19.30;;;22.90;84.60;;;;;;4935562;29;20035;-60
2022/08/19 09:32:03;;;;;;;29.48;18.63;;;23.10;83.90;;;;;;4932835;29;20059;-60
2022/08/19 09:34:29;;;;;;;26.35;16.50;;;23.20;82.30;;;;;;4934907;29;20496;-61
2022/08/19 09:36:57;;;;;;;19.13;11.90;;;23.20;81.20;;;;;;4934864;29;20459;-60
2022/08/19 09:39:23;;;;;;;20.30;11.48;;;23.30;79.30;;;;;;4935377;29;20038;-60
2022/08/19 09:41:49;;;;;;;20.58;11.77;;;23.30;77.50;;;;;;4934286;29;20019;-60
2022/08/19 09:44:15;;;;;;;17.98;10.57;;;23.30;76.80;;;;;;4935130;29;20024;-60
2022/08/19 09:46:41;;;;;;;21.60;11.93;;;23.30;75.00;;;;;;4934804;29;20390;-60
2022/08/19 09:49:07;;;;;;;20.92;11.95;;;23.30;75.10;;;;;;4934396;29;20027;-60
2022/08/19 09:51:33;;;;;;;19.98;12.18;;;23.40;75.50;;;;;;4935132;29;20031;-60
2022/08/19 09:54:01;;;;;;;21.38;12.85;;;23.40;75.00;;;;;;4934695;29;20038;-60
2022/08/19 09:56:27;;;;;;;17.38;10.95;;;23.40;73.30;;;;;;4934181;29;20451;-62
2022/08/19 09:58:53;;;;;;;22.48;12.45;;;23.40;74.00;;;;;;4934453;29;20035;-61
2022/08/19 10:01:25;;;;;;;19.80;12.90;;;23.40;74.80;;;;;;4934382;29;20036;-62
2022/08/19 10:03:54;;;;;;;19.15;10.40;;;23.50;74.60;;;;;;4934438;29;20052;-61
2022/08/19 10:06:22;;;;;;;16.17;10.57;;;23.60;75.20;;;;;;4934834;29;20066;-60
2022/08/19 10:08:48;;;;;;;18.88;11.20;;;23.70;74.50;;;;;;4933865;29;20055;-61
2022/08/19 10:11:15;;;;;;;23.52;11.25;;;23.70;74.10;;;;;;4934434;29;20492;-61
2022/08/19 10:13:42;;;;;;;20.58;12.77;;;23.80;73.20;;;;;;4934325;29;20023;-60
2022/08/19 10:16:14;;;;;;;23.63;14.27;;;23.80;73.90;;;;;;4934173;29;20070;-61
2022/08/19 10:18:43;;;;;;;24.13;13.10;;;23.80;73.70;;;;;;4934750;29;20070;-61
2022/08/19 10:21:15;;;;;;;22.90;14.10;;;23.90;73.70;;;;;;4934619;29;20035;-61
2022/08/19 10:23:44;;;;;;;25.00;15.07;;;23.90;74.10;;;;;;4933929;29;20020;-61
2022/08/19 10:26:15;;;;;;;24.55;12.55;;;23.90;74.20;;;;;;4934470;29;20038;-60
2022/08/19 10:28:41;;;;;;;23.52;12.60;;;23.90;74.70;;;;;;4934204;29;20047;-61
2022/08/19 10:31:10;;;;;;;23.30;12.65;;;24.00;74.20;;;;;;4948406;29;20381;-60
2022/08/19 10:33:36;;;;;;;21.30;12.75;;;24.10;74.50;;;;;;4934261;29;20578;-61
2022/08/19 10:36:09;;;;;;;21.75;12.50;;;24.10;73.70;;;;;;4933861;29;20027;-61
2022/08/19 10:38:35;;;;;;;22.50;12.48;;;24.10;73.30;;;;;;4934497;29;20030;-60
2022/08/19 10:41:12;;;;;;;24.98;13.63;;;24.10;72.10;;;;;;4933785;29;20035;-60
2022/08/19 10:43:39;;;;;;;24.10;13.13;;;24.00;73.50;;;;;;4933557;29;20023;-61
2022/08/19 10:46:11;;;;;;;26.20;14.35;;;24.10;74.10;;;;;;4934214;29;20020;-63
2022/08/19 10:48:37;;;;;;;21.88;12.43;;;24.10;74.10;;;;;;4934197;29;20031;-61
2022/08/19 10:53:49;;;;;;;15.18;8.38;;;24.20;72.10;;;;;;4934290;29;20579;-65
2022/08/19 10:58:59;;;;;;;15.00;7.32;;;24.10;70.00;;;;;;4933180;29;20162;-61
2022/08/19 11:01:27;;;;;;;14.80;7.60;;;24.10;69.80;;;;;;4934020;29;20538;-61
2022/08/19 11:03:52;;;;;;;11.77;6.57;;;24.10;70.50;;;;;;4933615;29;20019;-61
2022/08/19 11:06:19;;;;;;;18.50;9.43;;;24.10;71.70;;;;;;4933284;29;20034;-61
2022/08/19 11:08:45;;;;;;;14.73;8.90;;;24.20;71.60;;;;;;4933308;29;20362;-62
2022/08/19 11:11:11;;;;;;;17.58;9.50;;;24.20;72.00;;;;;;4933500;29;20035;-62
2022/08/19 11:13:39;;;;;;;20.05;10.93;;;24.20;72.70;;;;;;4947951;29;20020;-61
2022/08/19 11:16:14;;;;;;;20.80;11.10;;;24.30;72.80;;;;;;4933179;29;20477;-61
2022/08/19 11:18:43;;;;;;;16.33;9.90;;;24.40;72.80;;;;;;4932927;29;20035;-62
2022/08/19 11:21:21;;;;;;;16.85;8.95;;;24.40;70.00;;;;;;4933385;29;20484;-60
2022/08/19 11:23:50;;;;;;;15.82;9.43;;;24.30;69.20;;;;;;4933416;29;20090;-61
2022/08/19 11:26:17;;;;;;;17.48;10.43;;;24.20;70.20;;;;;;4932690;29;20034;-60
2022/08/19 11:28:43;;;;;;;17.40;9.27;;;24.30;70.90;;;;;;4933341;29;20027;-61
2022/08/19 11:31:20;;;;;;;15.63;8.98;;;24.30;71.40;;;;;;4933550;29;20039;-61
2022/08/19 11:33:50;;;;;;;18.20;9.57;;;24.50;71.30;;;;;;4932815;29;20032;-60
2022/08/19 11:36:16;;;;;;;19.20;9.70;;;24.60;71.30;;;;;;4933299;29;20461;-61
2022/08/19 11:38:42;;;;;;;18.20;11.23;;;24.60;70.40;;;;;;4933313;29;20182;-61
2022/08/19 11:41:08;;;;;;;19.40;12.02;;;24.70;70.00;;;;;;4932542;29;20132;-61
2022/08/19 11:43:35;;;;;;;18.45;11.00;;;24.70;70.70;;;;;;4934168;29;20106;-60
2022/08/19 11:46:08;;;;;;;19.30;12.00;;;24.70;71.30;;;;;;4933215;29;20031;-60
2022/08/19 11:48:34;;;;;;;17.92;10.02;;;24.80;70.80;;;;;;4947538;29;20046;-60
2022/08/19 11:51:09;;;;;;;21.92;12.07;;;24.90;71.00;;;;;;4933038;29;20024;-61
2022/08/19 11:53:35;;;;;;;21.48;12.48;;;24.90;70.60;;;;;;4933408;29;20075;-61
2022/08/19 11:56:02;;;;;;;18.80;10.75;;;24.90;70.60;;;;;;4932544;29;20040;-61
2022/08/19 11:58:28;;;;;;;22.75;12.63;;;25.00;70.60;;;;;;4933208;29;20027;-61
2022/08/19 12:00:54;;;;;;;21.98;11.88;;;25.10;69.70;;;;;;4932571;29;20112;-61
2022/08/19 12:03:20;;;;;;;20.63;11.73;;;25.10;70.00;;;;;;4933341;29;20051;-61
2022/08/19 12:05:46;;;;;;;19.02;10.43;;;25.30;70.30;;;;;;4932913;29;20046;-61
2022/08/19 12:08:12;;;;;;;23.25;12.15;;;25.40;70.10;;;;;;4932559;29;20023;-61
2022/08/19 12:10:39;;;;;;;20.58;11.35;;;25.40;69.10;;;;;;4932941;29;20070;-61
2022/08/19 12:13:06;;;;;;;19.52;11.80;;;25.50;68.80;;;;;;4932789;29;20027;-61
2022/08/19 12:15:40;;;;;;;19.92;10.93;;;25.50;69.10;;;;;;4932647;29;20563;-62
2022/08/19 12:18:06;;;;;;;16.83;10.57;;;25.40;69.30;;;;;;4933027;29;20484;-61
2022/08/19 12:20:39;;;;;;;16.75;9.98;;;25.50;66.60;;;;;;4935302;29;20047;-61
2022/08/19 12:23:06;;;;;;;15.15;8.60;;;25.40;66.50;;;;;;4936025;29;20028;-61
2022/08/19 12:25:32;;;;;;;20.27;11.30;;;25.40;67.10;;;;;;4936742;29;20059;-61
2022/08/19 12:27:58;;;;;;;17.83;9.65;;;25.60;67.50;;;;;;4936495;29;20031;-61
2022/08/19 12:30:24;;;;;;;14.05;8.65;;;25.80;67.90;;;;;;4935950;29;20388;-61
2022/08/19 12:32:51;;;;;;;17.20;10.23;;;25.90;67.30;;;;;;4936212;29;20079;-64
2022/08/19 12:35:17;;;;;;;17.55;10.30;;;26.00;66.40;;;;;;4936438;29;20384;-63
2022/08/19 12:37:44;;;;;;;14.50;8.55;;;26.00;65.80;;;;;;4935404;29;20523;-62
2022/08/19 12:40:11;;;;;;;16.60;9.35;;;26.10;65.40;;;;;;4936969;29;20030;-66
2022/08/19 12:42:40;;;;;;;17.08;8.60;;;26.20;64.20;;;;;;4935997;29;20024;-62
2022/08/19 12:45:07;;;;;;;15.88;8.60;;;26.30;64.10;;;;;;4935875;29;20476;-64
2022/08/19 12:47:32;;;;;;;14.15;8.52;;;26.40;64.30;;;;;;4936291;29;20016;-63
2022/08/19 12:49:58;;;;;;;13.35;8.27;;;26.50;63.50;;;;;;4942096;29;20122;-68
2022/08/19 12:52:26;;;;;;;14.27;8.75;;;26.50;63.90;;;;;;4954365;28;20050;-70
2022/08/19 12:54:54;;;;;;;17.50;8.90;;;26.30;61.80;;;;;;4954178;28;20027;-62
2022/08/19 12:57:19;;;;;;;16.52;10.02;;;26.20;62.30;;;;;;4954298;28;20067;-69
2022/08/19 12:59:45;;;;;;;16.63;7.97;;;26.10;62.00;;;;;;4954479;29;20065;-65
2022/08/19 13:02:10;;;;;;;14.38;8.73;;;25.90;63.60;;;;;;4955086;28;20433;-61